createdAt,value
2019-05-17T00:00:08.881Z,8.90
2019-05-17T00:02:37.683Z,9.43
2019-05-17T00:05:07.171Z,9.55
2019-05-17T00:07:36.845Z,9.80
2019-05-17T00:10:06.931Z,9.78
2019-05-17T00:12:36.822Z,9.73
2019-05-17T00:15:07.176Z,9.98
2019-05-17T00:17:37.729Z,9.68
2019-05-17T00:20:07.636Z,10.40
2019-05-17T00:22:36.570Z,9.35
2019-05-17T00:25:08.833Z,11.30
2019-05-17T00:27:37.833Z,10.98
2019-05-17T00:30:10.386Z,11.45
2019-05-17T00:32:38.820Z,11.60
2019-05-17T00:35:07.699Z,12.10
2019-05-17T00:37:37.302Z,11.78
2019-05-17T00:40:07.893Z,11.57
2019-05-17T00:42:37.207Z,12.45
2019-05-17T00:45:07.609Z,11.97
2019-05-17T00:47:37.394Z,13.00
2019-05-17T00:50:07.564Z,12.90
2019-05-17T00:52:36.859Z,12.47
2019-05-17T00:55:09.034Z,13.18
2019-05-17T00:57:37.465Z,14.20
2019-05-17T01:00:09.521Z,12.93
2019-05-17T01:02:37.946Z,14.00
2019-05-17T01:05:07.428Z,13.72
2019-05-17T01:07:37.686Z,13.75
2019-05-17T01:10:07.784Z,14.07
2019-05-17T01:12:36.604Z,14.47
2019-05-17T01:15:09.350Z,14.53
2019-05-17T01:17:37.850Z,14.10
2019-05-17T01:20:09.724Z,14.30
2019-05-17T01:22:38.172Z,13.58
2019-05-17T01:25:10.392Z,13.40
2019-05-17T01:27:39.009Z,14.10
2019-05-17T01:30:08.641Z,12.87
2019-05-17T01:32:37.634Z,14.38
2019-05-17T01:35:07.614Z,14.03
2019-05-17T01:37:37.015Z,14.10
2019-05-17T01:40:07.541Z,14.20
2019-05-17T01:42:37.359Z,12.73
2019-05-17T01:45:07.469Z,13.60
2019-05-17T01:47:36.808Z,13.62
2019-05-17T01:50:09.129Z,13.00
2019-05-17T01:52:37.560Z,13.28
2019-05-17T01:55:07.894Z,12.73
2019-05-17T01:57:37.019Z,13.65
2019-05-17T02:00:10.132Z,13.25
2019-05-17T02:02:40.206Z,13.22
2019-05-17T02:05:08.906Z,12.93
2019-05-17T02:07:37.439Z,12.90
2019-05-17T02:10:07.707Z,13.10
2019-05-17T02:12:37.172Z,12.20
2019-05-17T02:15:08.783Z,12.28
2019-05-17T02:17:37.459Z,13.10
2019-05-17T02:20:07.500Z,12.25
2019-05-17T02:22:36.801Z,12.73
2019-05-17T02:25:07.368Z,12.40
2019-05-17T02:27:41.031Z,12.73
2019-05-17T02:30:07.526Z,11.87
2019-05-17T02:32:36.236Z,12.13
2019-05-17T02:35:05.213Z,11.80
2019-05-17T02:37:33.728Z,12.10
2019-05-17T02:40:07.194Z,11.15
2019-05-17T02:42:33.384Z,12.43
2019-05-17T02:45:02.981Z,11.95
2019-05-17T02:47:33.629Z,12.60
2019-05-17T02:50:05.490Z,12.40
2019-05-17T02:52:32.843Z,12.53
2019-05-17T02:55:04.154Z,12.47
2019-05-17T02:57:34.587Z,13.88
2019-05-17T03:00:04.336Z,13.30
2019-05-17T03:02:34.172Z,13.38
2019-05-17T03:05:04.085Z,13.45
2019-05-17T03:07:32.727Z,12.55
2019-05-17T03:10:16.527Z,12.70
2019-05-17T03:12:33.011Z,12.37
2019-05-17T03:15:04.046Z,13.08
2019-05-17T03:17:33.831Z,12.90
2019-05-17T03:20:03.908Z,13.78
2019-05-17T03:22:33.107Z,13.90
2019-05-17T03:25:03.179Z,13.20
2019-05-17T03:27:33.752Z,13.98
2019-05-17T03:30:04.058Z,13.90
2019-05-17T03:32:36.029Z,14.93
2019-05-17T03:35:06.793Z,14.63
2019-05-17T03:37:37.682Z,15.13
2019-05-17T03:40:23.592Z,14.83
2019-05-17T03:42:35.533Z,15.00
2019-05-17T03:45:05.528Z,15.43
2019-05-17T03:47:33.958Z,15.80
2019-05-17T03:50:03.022Z,15.15
2019-05-17T03:52:33.351Z,15.20
2019-05-17T03:55:03.974Z,16.32
2019-05-17T03:57:32.500Z,15.50
2019-05-17T04:00:03.795Z,14.38
2019-05-17T04:02:32.653Z,16.02
2019-05-17T04:05:04.203Z,16.25
2019-05-17T04:07:32.836Z,15.98
2019-05-17T04:10:04.511Z,15.55
2019-05-17T04:12:32.761Z,16.80
2019-05-17T04:15:03.150Z,16.90
2019-05-17T04:17:32.849Z,16.93
2019-05-17T04:20:03.343Z,17.40
2019-05-17T04:22:33.191Z,18.42
2019-05-17T04:25:02.989Z,18.87
2019-05-17T04:27:32.769Z,18.15
2019-05-17T04:30:03.652Z,17.65
2019-05-17T04:32:33.069Z,17.10
2019-05-17T04:35:03.776Z,18.15
2019-05-17T04:37:33.985Z,17.82
2019-05-17T04:40:03.523Z,19.12
2019-05-17T04:42:33.172Z,19.20
2019-05-17T04:45:03.597Z,18.20
2019-05-17T04:47:33.205Z,17.75
2019-05-17T04:50:04.040Z,19.00
2019-05-17T04:52:33.640Z,18.97
2019-05-17T04:55:04.006Z,19.05
2019-05-17T04:57:32.693Z,18.80
2019-05-17T05:00:04.163Z,18.90
2019-05-17T05:02:32.940Z,18.57
2019-05-17T05:05:03.418Z,17.25
2019-05-17T05:07:33.522Z,17.30
2019-05-17T05:10:03.078Z,18.42
2019-05-17T05:12:33.547Z,17.60
2019-05-17T05:15:03.444Z,16.80
2019-05-17T05:17:32.965Z,17.60
2019-05-17T05:20:02.722Z,17.15
2019-05-17T05:22:33.049Z,17.20
2019-05-17T05:25:02.143Z,16.10
2019-05-17T05:27:31.624Z,16.57
2019-05-17T05:30:00.159Z,15.40
2019-05-17T05:32:28.653Z,15.93
2019-05-17T05:34:57.085Z,15.13
2019-05-17T05:37:25.520Z,16.57
2019-05-17T05:39:54.694Z,15.88
2019-05-17T05:42:23.165Z,16.25
2019-05-17T05:44:52.198Z,15.32
2019-05-17T05:47:22.189Z,15.10
2019-05-17T05:49:52.050Z,15.10
2019-05-17T05:52:21.833Z,14.63
2019-05-17T05:54:52.073Z,14.13
2019-05-17T05:57:21.923Z,13.80
2019-05-17T05:59:51.835Z,14.25
2019-05-17T06:02:21.877Z,15.00
2019-05-17T06:04:51.828Z,13.60
2019-05-17T06:07:21.622Z,13.40
2019-05-17T06:09:51.805Z,13.43
2019-05-17T06:12:26.988Z,13.65
2019-05-17T06:14:52.388Z,13.40
2019-05-17T06:17:21.604Z,14.55
2019-05-17T06:19:51.690Z,12.43
2019-05-17T06:22:22.244Z,12.65
2019-05-17T06:24:52.052Z,12.00
2019-05-17T06:27:21.533Z,12.15
2019-05-17T06:29:51.518Z,12.40
2019-05-17T06:32:22.724Z,11.57
2019-05-17T06:34:51.447Z,10.82
2019-05-17T06:37:22.184Z,10.63
2019-05-17T06:39:52.490Z,9.43
2019-05-17T06:42:21.628Z,10.68
2019-05-17T06:44:52.362Z,9.78
2019-05-17T06:47:22.586Z,9.55
2019-05-17T06:49:53.470Z,10.50
2019-05-17T06:52:22.586Z,10.50
2019-05-17T06:54:52.437Z,11.88
2019-05-17T06:57:23.194Z,12.58
2019-05-17T06:59:51.245Z,12.07
2019-05-17T07:02:19.796Z,10.90
2019-05-17T07:04:48.292Z,11.22
2019-05-17T07:07:30.455Z,10.50
2019-05-17T07:10:00.463Z,10.80
2019-05-17T07:12:30.737Z,11.00
2019-05-17T07:15:01.580Z,11.08
2019-05-17T07:17:30.449Z,11.10
2019-05-17T07:19:59.781Z,10.50
2019-05-17T07:22:29.660Z,10.98
2019-05-17T07:24:59.779Z,11.10
2019-05-17T07:27:40.990Z,10.70
2019-05-17T07:29:59.307Z,10.28
2019-05-17T07:32:29.780Z,10.60
2019-05-17T07:35:00.011Z,10.20
2019-05-17T07:37:30.115Z,10.45
2019-05-17T07:40:04.491Z,10.28
2019-05-17T07:42:29.842Z,9.40
2019-05-17T07:45:00.342Z,10.10
2019-05-17T07:47:29.459Z,10.10
2019-05-17T07:50:00.704Z,10.78
2019-05-17T07:52:29.978Z,10.60
2019-05-17T07:55:02.275Z,10.63
2019-05-17T07:57:29.953Z,9.80
2019-05-17T08:00:00.001Z,10.40
2019-05-17T08:02:30.614Z,13.25
2019-05-17T08:05:00.428Z,10.00
2019-05-17T08:07:30.214Z,10.50
2019-05-17T08:10:00.109Z,9.65
2019-05-17T08:12:30.525Z,10.10
2019-05-17T08:14:59.883Z,9.78
2019-05-17T08:17:30.455Z,9.80
2019-05-17T08:20:00.618Z,10.15
2019-05-17T08:22:29.380Z,10.30
2019-05-17T08:24:59.976Z,10.20
2019-05-17T08:27:29.711Z,9.68
2019-05-17T08:29:59.794Z,10.53
2019-05-17T08:32:31.340Z,10.50
2019-05-17T08:35:00.340Z,9.38
2019-05-17T08:37:30.226Z,10.70
2019-05-17T08:40:00.142Z,10.60
2019-05-17T08:42:29.957Z,10.28
2019-05-17T08:45:00.236Z,10.50
2019-05-17T08:47:30.010Z,9.97
2019-05-17T08:50:00.445Z,10.03
2019-05-17T08:52:29.390Z,10.35
2019-05-17T08:55:00.145Z,10.80
2019-05-17T08:57:30.244Z,9.50
2019-05-17T09:00:00.657Z,10.32
2019-05-17T09:02:29.872Z,10.25
2019-05-17T09:05:00.507Z,11.20
2019-05-17T09:07:29.537Z,10.30
2019-05-17T09:09:58.271Z,10.20
2019-05-17T09:12:26.702Z,10.57
2019-05-17T09:14:55.128Z,11.25
2019-05-17T09:17:23.571Z,10.50
2019-05-17T09:19:54.353Z,11.68
2019-05-17T09:22:22.162Z,10.88
2019-05-17T09:24:50.596Z,12.18
2019-05-17T09:27:19.769Z,12.13
2019-05-17T09:29:49.726Z,12.40
2019-05-17T09:32:20.207Z,12.77
2019-05-17T09:34:49.820Z,11.53
2019-05-17T09:37:19.833Z,13.35
2019-05-17T09:39:49.253Z,13.45
2019-05-17T09:42:17.838Z,12.85
2019-05-17T09:44:46.264Z,14.05
2019-05-17T09:47:14.718Z,13.08
2019-05-17T09:49:43.179Z,12.97
2019-05-17T09:52:11.602Z,13.62
2019-05-17T09:54:45.103Z,12.50
2019-05-17T09:57:10.199Z,12.25
2019-05-17T09:59:40.497Z,14.03
2019-05-17T10:02:09.581Z,12.90
2019-05-17T10:04:39.532Z,12.30
2019-05-17T10:07:10.237Z,12.20
2019-05-17T10:09:40.015Z,11.85
2019-05-17T10:12:09.564Z,11.70
2019-05-17T10:14:38.116Z,11.55
2019-05-17T10:17:06.542Z,11.20
2019-05-17T10:19:34.985Z,11.78
2019-05-17T10:22:03.409Z,11.93
2019-05-17T10:24:37.869Z,11.45
2019-05-17T10:27:02.069Z,12.55
2019-05-17T10:29:30.501Z,10.70
2019-05-17T10:31:59.850Z,10.95
2019-05-17T10:34:29.435Z,10.65
2019-05-17T10:36:57.956Z,10.75
2019-05-17T10:39:26.392Z,9.53
2019-05-17T10:41:54.830Z,10.78
2019-05-17T10:44:23.509Z,11.25
2019-05-17T10:46:51.941Z,10.35
2019-05-17T10:49:20.382Z,10.18
2019-05-17T10:51:49.443Z,10.48
2019-05-17T10:54:20.430Z,10.10
2019-05-17T10:56:50.226Z,10.00
2019-05-17T10:59:20.197Z,10.25
2019-05-17T11:01:50.166Z,8.70
2019-05-17T11:04:19.730Z,9.90
2019-05-17T11:06:50.110Z,9.60
2019-05-17T11:09:20.512Z,8.95
2019-05-17T11:11:48.805Z,8.80
2019-05-17T11:14:17.231Z,8.43
2019-05-17T11:16:45.660Z,8.73
2019-05-17T11:19:14.081Z,8.58
2019-05-17T11:21:42.519Z,8.63
2019-05-17T11:24:10.943Z,9.13
2019-05-17T11:26:39.377Z,9.40
2019-05-17T11:29:07.881Z,9.70
2019-05-17T11:31:36.326Z,9.20
2019-05-17T11:34:04.760Z,8.20
2019-05-17T11:36:33.436Z,7.95
2019-05-17T11:39:01.918Z,7.70
2019-05-17T11:41:30.413Z,9.00
2019-05-17T11:43:58.837Z,8.50
2019-05-17T11:46:35.736Z,7.60
2019-05-17T11:48:57.429Z,8.20
2019-05-17T11:51:27.435Z,8.10
2019-05-17T11:53:56.058Z,8.35
2019-05-17T11:56:24.493Z,8.88
2019-05-17T11:58:52.933Z,8.43
2019-05-17T12:01:21.422Z,8.87
2019-05-17T12:03:49.855Z,9.00
2019-05-17T12:06:18.290Z,8.53
2019-05-17T12:08:46.718Z,8.50
2019-05-17T12:11:15.157Z,8.75
2019-05-17T12:13:43.810Z,8.95
2019-05-17T12:16:12.366Z,8.63
2019-05-17T12:18:40.786Z,7.20
2019-05-17T12:21:09.217Z,7.92
2019-05-17T12:23:37.653Z,8.38
2019-05-17T12:26:06.135Z,7.47
2019-05-17T12:28:34.588Z,7.70
2019-05-17T12:31:03.005Z,7.20
2019-05-17T12:33:31.445Z,8.50
2019-05-17T12:35:59.869Z,7.80
2019-05-17T12:38:28.299Z,8.13
2019-05-17T12:40:56.719Z,9.50
2019-05-17T12:43:25.149Z,9.15
2019-05-17T12:46:00.603Z,7.90
2019-05-17T12:48:23.765Z,8.20
2019-05-17T12:50:52.518Z,8.53
2019-05-17T12:53:20.951Z,8.40
2019-05-17T12:55:49.377Z,7.70
2019-05-17T12:58:17.821Z,7.62
2019-05-17T13:00:46.242Z,7.70
2019-05-17T13:03:14.674Z,8.58
2019-05-17T13:05:43.096Z,8.95
2019-05-17T13:08:11.535Z,9.30
2019-05-17T13:10:39.961Z,7.92
2019-05-17T13:13:09.695Z,7.97
2019-05-17T13:15:38.296Z,8.03
2019-05-17T13:18:06.722Z,7.78
2019-05-17T13:20:35.146Z,9.50
2019-05-17T13:23:03.697Z,8.60
2019-05-17T13:25:32.155Z,8.20
2019-05-17T13:28:00.670Z,7.70
2019-05-17T13:30:29.152Z,6.83
2019-05-17T13:32:57.597Z,6.55
2019-05-17T13:35:26.302Z,7.17
2019-05-17T13:37:54.794Z,7.22
2019-05-17T13:40:23.267Z,6.80
2019-05-17T13:42:51.735Z,7.62
2019-05-17T13:45:20.178Z,6.90
2019-05-17T13:47:48.665Z,6.95
2019-05-17T13:50:17.402Z,7.30
2019-05-17T13:52:45.825Z,7.33
2019-05-17T13:55:14.591Z,7.42
2019-05-17T13:57:43.100Z,7.50
2019-05-17T14:00:12.509Z,7.30
2019-05-17T14:02:40.941Z,7.92
2019-05-17T14:05:09.500Z,7.97
2019-05-17T14:07:37.922Z,8.60
2019-05-17T14:10:07.102Z,7.73
2019-05-17T14:12:35.530Z,8.60
2019-05-17T14:15:08.198Z,7.62
2019-05-17T14:17:36.625Z,8.35
2019-05-17T14:20:05.402Z,7.50
2019-05-17T14:22:36.012Z,8.73
2019-05-17T14:25:07.693Z,8.60
2019-05-17T14:27:36.375Z,7.65
2019-05-17T14:30:09.129Z,8.47
2019-05-17T14:32:37.616Z,7.80
2019-05-17T14:35:06.389Z,8.23
2019-05-17T14:37:34.815Z,8.15
2019-05-17T14:40:04.417Z,8.50
2019-05-17T14:42:33.102Z,8.70
2019-05-17T14:45:01.668Z,7.97
2019-05-17T14:47:30.205Z,7.90
2019-05-17T14:49:58.645Z,8.80
2019-05-17T14:52:27.141Z,8.58
2019-05-17T14:54:55.587Z,8.23
2019-05-17T14:57:24.004Z,8.93
2019-05-17T14:59:52.614Z,8.55
2019-05-17T15:02:21.038Z,9.53
2019-05-17T15:04:49.472Z,8.70
2019-05-17T15:07:18.138Z,8.97
2019-05-17T15:09:46.582Z,8.88
2019-05-17T15:12:27.352Z,9.50
2019-05-17T15:14:45.173Z,9.28
2019-05-17T15:17:13.665Z,8.90
2019-05-17T15:19:42.147Z,8.30
2019-05-17T15:22:10.597Z,8.67
2019-05-17T15:24:39.033Z,8.80
2019-05-17T15:27:07.465Z,8.50
2019-05-17T15:29:35.906Z,8.73
2019-05-17T15:32:04.337Z,9.33
2019-05-17T15:34:32.754Z,8.80
2019-05-17T15:37:01.194Z,8.10
2019-05-17T15:39:29.616Z,7.70
2019-05-17T15:41:58.057Z,6.95
2019-05-17T15:44:27.208Z,6.70
2019-05-17T15:46:55.730Z,7.62
2019-05-17T15:49:24.152Z,7.37
2019-05-17T15:51:52.589Z,7.40
2019-05-17T15:54:21.070Z,7.40
2019-05-17T15:56:49.533Z,7.30
2019-05-17T15:59:17.953Z,7.22
2019-05-17T16:01:46.597Z,7.80
2019-05-17T16:04:15.186Z,6.87
2019-05-17T16:06:43.635Z,6.90
2019-05-17T16:09:12.198Z,7.75
2019-05-17T16:11:40.620Z,7.00
2019-05-17T16:14:09.052Z,6.85
2019-05-17T16:16:37.476Z,7.22
2019-05-17T16:19:05.914Z,6.70
2019-05-17T16:21:34.333Z,7.22
2019-05-17T16:24:02.775Z,7.40
2019-05-17T16:26:31.209Z,7.30
2019-05-17T16:28:59.642Z,7.10
2019-05-17T16:31:28.064Z,8.00
2019-05-17T16:33:56.564Z,7.30
2019-05-17T16:36:25.014Z,7.90
2019-05-17T16:38:53.449Z,7.05
2019-05-17T16:41:21.871Z,7.10
2019-05-17T16:43:50.308Z,7.30
2019-05-17T16:46:18.810Z,7.55
2019-05-17T16:48:47.250Z,8.30
2019-05-17T16:51:15.924Z,7.78
2019-05-17T16:53:44.365Z,8.00
2019-05-17T16:56:12.785Z,8.30
2019-05-17T16:58:41.214Z,8.40
2019-05-17T17:01:09.645Z,9.08
2019-05-17T17:03:44.101Z,8.03
2019-05-17T17:06:10.403Z,8.60
2019-05-17T17:08:38.953Z,8.40
2019-05-17T17:11:07.387Z,8.00
2019-05-17T17:13:36.065Z,8.40
2019-05-17T17:16:04.676Z,8.80
2019-05-17T17:18:33.139Z,8.53
2019-05-17T17:21:01.564Z,7.40
2019-05-17T17:23:30.049Z,8.53
2019-05-17T17:25:58.501Z,9.45
2019-05-17T17:28:26.918Z,8.18
2019-05-17T17:30:55.350Z,8.50
2019-05-17T17:33:23.794Z,8.93
2019-05-17T17:35:52.796Z,7.60
2019-05-17T17:38:21.220Z,8.28
2019-05-17T17:40:49.653Z,8.88
2019-05-17T17:43:18.080Z,8.20
2019-05-17T17:45:46.768Z,8.60
2019-05-17T17:48:15.185Z,8.30
2019-05-17T17:50:43.965Z,8.68
2019-05-17T17:53:12.466Z,10.20
2019-05-17T17:55:40.901Z,8.90
2019-05-17T17:58:09.569Z,9.30
2019-05-17T18:00:38.005Z,8.80
2019-05-17T18:03:06.439Z,8.23
2019-05-17T18:05:34.862Z,8.60
2019-05-17T18:08:03.286Z,8.50
2019-05-17T18:10:33.530Z,9.63
2019-05-17T18:13:01.957Z,10.70
2019-05-17T18:15:39.116Z,9.60
2019-05-17T18:18:07.554Z,10.50
2019-05-17T18:20:36.061Z,10.00
2019-05-17T18:23:05.171Z,11.08
2019-05-17T18:25:33.698Z,12.10
2019-05-17T18:28:02.119Z,10.60
2019-05-17T18:30:30.563Z,10.00
2019-05-17T18:32:58.989Z,9.70
2019-05-17T18:35:27.435Z,11.35
2019-05-17T18:37:55.871Z,11.83
2019-05-17T18:40:24.463Z,12.43
2019-05-17T18:42:52.974Z,11.97
2019-05-17T18:45:21.404Z,12.20
2019-05-17T18:47:50.617Z,13.32
2019-05-17T18:50:19.383Z,12.13
2019-05-17T18:52:47.846Z,12.15
2019-05-17T18:55:17.955Z,13.77
2019-05-17T18:57:46.392Z,11.80
2019-05-17T19:00:16.037Z,11.43
2019-05-17T19:02:44.490Z,14.13
2019-05-17T19:05:13.667Z,13.30
2019-05-17T19:07:42.105Z,13.05
2019-05-17T19:10:11.185Z,12.00
2019-05-17T19:12:39.625Z,13.10
2019-05-17T19:15:10.389Z,12.58
2019-05-17T19:17:38.901Z,12.53
2019-05-17T19:20:08.578Z,13.45
2019-05-17T19:22:37.025Z,12.68
2019-05-17T19:25:07.685Z,13.00
2019-05-17T19:27:36.123Z,13.47
2019-05-17T19:30:07.107Z,14.50
2019-05-17T19:32:35.546Z,12.93
2019-05-17T19:35:05.118Z,12.95
2019-05-17T19:37:33.549Z,13.15
2019-05-17T19:40:01.992Z,14.63
2019-05-17T19:42:30.437Z,13.70
2019-05-17T19:44:59.633Z,13.38
2019-05-17T19:47:28.185Z,13.68
2019-05-17T19:49:56.617Z,14.10
2019-05-17T19:52:30.794Z,14.30
2019-05-17T19:54:59.237Z,14.55
2019-05-17T19:57:27.678Z,13.60
2019-05-17T19:59:56.105Z,14.15
2019-05-17T20:02:24.543Z,14.20
2019-05-17T20:04:52.981Z,13.40
2019-05-17T20:07:21.414Z,14.15
2019-05-17T20:09:49.851Z,14.33
2019-05-17T20:12:18.324Z,14.93
2019-05-17T20:14:46.829Z,14.38
2019-05-17T20:17:15.285Z,15.20
2019-05-17T20:19:43.781Z,14.20
2019-05-17T20:22:12.220Z,13.05
2019-05-17T20:24:40.659Z,14.30
2019-05-17T20:27:09.112Z,14.10
2019-05-17T20:29:37.555Z,14.53
2019-05-17T20:32:06.013Z,14.90
2019-05-17T20:34:34.501Z,15.72
2019-05-17T20:37:02.961Z,15.60
2019-05-17T20:39:31.488Z,16.23
2019-05-17T20:41:59.929Z,15.70
2019-05-17T20:44:28.426Z,16.20
2019-05-17T20:46:56.861Z,16.23
2019-05-17T20:49:25.314Z,17.70
2019-05-17T20:51:53.736Z,17.30
2019-05-17T20:54:22.178Z,17.37
2019-05-17T20:56:50.621Z,17.50
2019-05-17T20:59:19.129Z,17.92
2019-05-17T21:01:47.569Z,19.30
2019-05-17T21:04:16.250Z,18.77
2019-05-17T21:06:44.673Z,18.40
2019-05-17T21:09:13.118Z,19.13
2019-05-17T21:11:41.554Z,19.50
2019-05-17T21:14:09.998Z,19.50
2019-05-17T21:16:38.434Z,18.83
2019-05-17T21:19:07.151Z,19.23
2019-05-17T21:21:35.587Z,18.70
2019-05-17T21:24:04.093Z,19.37
2019-05-17T21:26:32.535Z,20.10
2019-05-17T21:29:01.232Z,18.98
2019-05-17T21:31:29.841Z,19.55
2019-05-17T21:33:58.278Z,20.60
2019-05-17T21:36:26.705Z,22.32
2019-05-17T21:38:55.144Z,21.45
2019-05-17T21:41:23.582Z,22.20
2019-05-17T21:43:52.024Z,22.25
2019-05-17T21:46:20.766Z,21.80
2019-05-17T21:48:49.226Z,21.35
2019-05-17T21:51:17.665Z,22.02
2019-05-17T21:53:46.094Z,21.20
2019-05-17T21:56:14.788Z,22.93
2019-05-17T21:58:43.209Z,22.50
2019-05-17T22:01:17.621Z,22.73
2019-05-17T22:03:46.109Z,23.18
2019-05-17T22:06:14.551Z,23.50
2019-05-17T22:08:42.973Z,24.30
2019-05-17T22:11:11.422Z,23.77
2019-05-17T22:13:40.102Z,25.23
2019-05-17T22:16:19.180Z,25.12
2019-05-17T22:18:38.705Z,25.75
2019-05-17T22:21:07.133Z,26.43
2019-05-17T22:23:35.564Z,26.70
2019-05-17T22:26:04.075Z,27.48
2019-05-17T22:28:32.501Z,26.40
2019-05-17T22:31:00.947Z,26.20
2019-05-17T22:33:29.444Z,26.68
2019-05-17T22:35:57.881Z,26.48
2019-05-17T22:38:26.316Z,26.57
2019-05-17T22:40:54.749Z,28.38
2019-05-17T22:43:23.187Z,27.50
2019-05-17T22:45:51.642Z,28.30
2019-05-17T22:48:20.134Z,27.77
2019-05-17T22:50:48.587Z,27.52
2019-05-17T22:53:17.007Z,28.00
2019-05-17T22:55:45.449Z,28.17
2019-05-17T22:58:13.873Z,27.82
2019-05-17T23:00:42.313Z,27.05
2019-05-17T23:03:10.740Z,26.80
2019-05-17T23:05:39.184Z,28.30
2019-05-17T23:08:07.613Z,27.20
2019-05-17T23:10:36.045Z,26.82
2019-05-17T23:13:04.557Z,27.93
2019-05-17T23:15:34.616Z,27.98
2019-05-17T23:18:03.053Z,28.43
2019-05-17T23:20:31.468Z,28.42
2019-05-17T23:22:59.952Z,28.57
2019-05-17T23:25:28.456Z,28.32
2019-05-17T23:27:56.909Z,29.17
2019-05-17T23:30:25.329Z,27.40
2019-05-17T23:32:53.784Z,27.37
2019-05-17T23:35:22.209Z,29.67
2019-05-17T23:37:50.896Z,27.90
2019-05-17T23:40:19.400Z,29.30
2019-05-17T23:42:47.842Z,29.10
2019-05-17T23:45:16.325Z,29.25
2019-05-17T23:47:44.794Z,28.65
2019-05-17T23:50:13.362Z,29.67
2019-05-17T23:52:41.806Z,30.85
2019-05-17T23:55:10.478Z,31.07
2019-05-17T23:57:39.173Z,30.25
